sensor_id;sensor_type;location;lat;lon;timestamp;P1;durP1;ratioP1;P2;durP2;ratioP2
11348;SDS011;5729;43.570;27.826;2023-07-13T00:01:13;17.75;;;8.20;;
11348;SDS011;5729;43.570;27.826;2023-07-13T00:03:39;13.30;;;7.60;;
11348;SDS011;5729;43.570;27.826;2023-07-13T00:06:06;12.85;;;6.80;;
11348;SDS011;5729;43.570;27.826;2023-07-13T00:08:32;9.75;;;6.65;;
11348;SDS011;5729;43.570;27.826;2023-07-13T00:10:58;9.25;;;6.13;;
11348;SDS011;5729;43.570;27.826;2023-07-13T00:13:24;10.85;;;6.07;;
11348;SDS011;5729;43.570;27.826;2023-07-13T00:15:49;7.90;;;6.05;;
11348;SDS011;5729;43.570;27.826;2023-07-13T00:18:15;7.93;;;6.28;;
11348;SDS011;5729;43.570;27.826;2023-07-13T00:20:41;10.38;;;6.22;;
11348;SDS011;5729;43.570;27.826;2023-07-13T00:23:06;9.18;;;6.05;;
11348;SDS011;5729;43.570;27.826;2023-07-13T00:25:32;7.80;;;6.05;;
11348;SDS011;5729;43.570;27.826;2023-07-13T00:27:57;9.82;;;6.80;;
11348;SDS011;5729;43.570;27.826;2023-07-13T00:30:23;8.60;;;6.15;;
11348;SDS011;5729;43.570;27.826;2023-07-13T00:32:49;7.18;;;6.28;;
11348;SDS011;5729;43.570;27.826;2023-07-13T00:35:14;9.02;;;6.80;;
11348;SDS011;5729;43.570;27.826;2023-07-13T00:37:40;10.07;;;5.97;;
11348;SDS011;5729;43.570;27.826;2023-07-13T00:40:06;9.35;;;6.10;;
11348;SDS011;5729;43.570;27.826;2023-07-13T00:42:33;8.25;;;6.47;;
11348;SDS011;5729;43.570;27.826;2023-07-13T00:47:50;8.35;;;6.30;;
11348;SDS011;5729;43.570;27.826;2023-07-13T00:50:16;8.73;;;6.72;;
11348;SDS011;5729;43.570;27.826;2023-07-13T00:52:46;10.18;;;6.40;;
11348;SDS011;5729;43.570;27.826;2023-07-13T00:55:16;9.60;;;6.63;;
11348;SDS011;5729;43.570;27.826;2023-07-13T00:57:42;7.68;;;6.30;;
11348;SDS011;5729;43.570;27.826;2023-07-13T01:00:09;10.60;;;6.97;;
11348;SDS011;5729;43.570;27.826;2023-07-13T01:02:37;9.43;;;6.70;;
11348;SDS011;5729;43.570;27.826;2023-07-13T01:05:11;10.98;;;7.18;;
11348;SDS011;5729;43.570;27.826;2023-07-13T01:07:42;10.55;;;7.10;;
11348;SDS011;5729;43.570;27.826;2023-07-13T01:10:09;11.75;;;7.22;;
11348;SDS011;5729;43.570;27.826;2023-07-13T01:12:36;9.55;;;7.35;;
11348;SDS011;5729;43.570;27.826;2023-07-13T01:15:02;7.60;;;6.40;;
11348;SDS011;5729;43.570;27.826;2023-07-13T01:17:29;10.00;;;7.35;;
11348;SDS011;5729;43.570;27.826;2023-07-13T01:19:58;8.55;;;7.00;;
11348;SDS011;5729;43.570;27.826;2023-07-13T01:22:23;12.35;;;7.47;;
11348;SDS011;5729;43.570;27.826;2023-07-13T01:24:51;9.55;;;7.22;;
11348;SDS011;5729;43.570;27.826;2023-07-13T01:27:20;14.20;;;7.50;;
11348;SDS011;5729;43.570;27.826;2023-07-13T01:29:50;9.65;;;6.80;;
11348;SDS011;5729;43.570;27.826;2023-07-13T01:32:19;10.27;;;7.43;;
11348;SDS011;5729;43.570;27.826;2023-07-13T01:34:49;11.23;;;6.65;;
11348;SDS011;5729;43.570;27.826;2023-07-13T01:37:17;7.28;;;6.40;;
11348;SDS011;5729;43.570;27.826;2023-07-13T01:39:43;8.45;;;6.38;;
11348;SDS011;5729;43.570;27.826;2023-07-13T01:42:08;11.27;;;7.03;;
11348;SDS011;5729;43.570;27.826;2023-07-13T01:44:34;11.02;;;6.65;;
11348;SDS011;5729;43.570;27.826;2023-07-13T01:47:00;7.63;;;6.30;;
11348;SDS011;5729;43.570;27.826;2023-07-13T01:49:26;8.25;;;7.22;;
11348;SDS011;5729;43.570;27.826;2023-07-13T01:51:51;7.05;;;5.90;;
11348;SDS011;5729;43.570;27.826;2023-07-13T01:54:16;8.23;;;6.88;;
11348;SDS011;5729;43.570;27.826;2023-07-13T01:56:42;9.00;;;7.43;;
11348;SDS011;5729;43.570;27.826;2023-07-13T01:59:08;8.93;;;7.40;;
11348;SDS011;5729;43.570;27.826;2023-07-13T02:01:34;9.70;;;7.03;;
11348;SDS011;5729;43.570;27.826;2023-07-13T02:03:59;10.30;;;7.95;;
11348;SDS011;5729;43.570;27.826;2023-07-13T02:06:25;15.05;;;7.50;;
11348;SDS011;5729;43.570;27.826;2023-07-13T02:08:50;9.40;;;7.20;;
11348;SDS011;5729;43.570;27.826;2023-07-13T02:11:16;8.10;;;7.30;;
11348;SDS011;5729;43.570;27.826;2023-07-13T02:13:42;10.32;;;7.55;;
11348;SDS011;5729;43.570;27.826;2023-07-13T02:16:07;10.20;;;7.93;;
11348;SDS011;5729;43.570;27.826;2023-07-13T02:18:33;10.85;;;7.53;;
11348;SDS011;5729;43.570;27.826;2023-07-13T02:20:59;8.88;;;7.53;;
11348;SDS011;5729;43.570;27.826;2023-07-13T02:23:24;11.20;;;7.32;;
11348;SDS011;5729;43.570;27.826;2023-07-13T02:25:53;9.70;;;7.32;;
11348;SDS011;5729;43.570;27.826;2023-07-13T02:28:22;9.80;;;7.75;;
11348;SDS011;5729;43.570;27.826;2023-07-13T02:30:48;8.77;;;7.90;;
11348;SDS011;5729;43.570;27.826;2023-07-13T02:33:13;10.68;;;7.53;;
11348;SDS011;5729;43.570;27.826;2023-07-13T02:35:39;10.63;;;7.53;;
11348;SDS011;5729;43.570;27.826;2023-07-13T02:38:04;11.50;;;8.18;;
11348;SDS011;5729;43.570;27.826;2023-07-13T02:40:30;8.65;;;7.22;;
11348;SDS011;5729;43.570;27.826;2023-07-13T02:42:58;8.65;;;7.47;;
11348;SDS011;5729;43.570;27.826;2023-07-13T02:45:25;8.85;;;7.93;;
11348;SDS011;5729;43.570;27.826;2023-07-13T02:47:51;8.75;;;7.53;;
11348;SDS011;5729;43.570;27.826;2023-07-13T02:50:16;11.73;;;8.32;;
11348;SDS011;5729;43.570;27.826;2023-07-13T02:52:42;9.68;;;8.00;;
11348;SDS011;5729;43.570;27.826;2023-07-13T02:55:07;10.02;;;7.65;;
11348;SDS011;5729;43.570;27.826;2023-07-13T02:57:33;9.65;;;7.22;;
11348;SDS011;5729;43.570;27.826;2023-07-13T02:59:59;8.52;;;7.72;;
11348;SDS011;5729;43.570;27.826;2023-07-13T03:02:25;11.65;;;7.88;;
11348;SDS011;5729;43.570;27.826;2023-07-13T03:04:53;8.70;;;7.80;;
11348;SDS011;5729;43.570;27.826;2023-07-13T03:07:19;9.30;;;8.27;;
11348;SDS011;5729;43.570;27.826;2023-07-13T03:09:44;11.57;;;8.38;;
11348;SDS011;5729;43.570;27.826;2023-07-13T03:12:10;9.90;;;8.23;;
11348;SDS011;5729;43.570;27.826;2023-07-13T03:14:35;10.82;;;8.27;;
11348;SDS011;5729;43.570;27.826;2023-07-13T03:17:01;8.45;;;7.65;;
11348;SDS011;5729;43.570;27.826;2023-07-13T03:19:26;11.68;;;7.95;;
11348;SDS011;5729;43.570;27.826;2023-07-13T03:21:51;9.32;;;7.90;;
11348;SDS011;5729;43.570;27.826;2023-07-13T03:24:17;15.77;;;8.80;;
11348;SDS011;5729;43.570;27.826;2023-07-13T03:26:42;12.38;;;8.70;;
11348;SDS011;5729;43.570;27.826;2023-07-13T03:29:08;15.73;;;8.07;;
11348;SDS011;5729;43.570;27.826;2023-07-13T03:31:34;11.25;;;8.13;;
11348;SDS011;5729;43.570;27.826;2023-07-13T03:34:01;13.18;;;8.73;;
11348;SDS011;5729;43.570;27.826;2023-07-13T03:36:27;11.23;;;8.40;;
11348;SDS011;5729;43.570;27.826;2023-07-13T03:38:58;17.33;;;8.85;;
11348;SDS011;5729;43.570;27.826;2023-07-13T03:41:25;15.35;;;8.43;;
11348;SDS011;5729;43.570;27.826;2023-07-13T03:43:51;10.40;;;8.30;;
11348;SDS011;5729;43.570;27.826;2023-07-13T03:46:17;10.80;;;8.55;;
11348;SDS011;5729;43.570;27.826;2023-07-13T03:48:44;15.55;;;8.23;;
11348;SDS011;5729;43.570;27.826;2023-07-13T03:51:12;11.02;;;9.02;;
11348;SDS011;5729;43.570;27.826;2023-07-13T03:53:40;10.88;;;8.52;;
11348;SDS011;5729;43.570;27.826;2023-07-13T03:56:07;12.45;;;9.30;;
11348;SDS011;5729;43.570;27.826;2023-07-13T03:58:33;13.65;;;8.65;;
11348;SDS011;5729;43.570;27.826;2023-07-13T04:01:00;11.75;;;8.48;;
11348;SDS011;5729;43.570;27.826;2023-07-13T04:03:27;9.85;;;8.48;;
11348;SDS011;5729;43.570;27.826;2023-07-13T04:05:54;11.93;;;9.50;;
11348;SDS011;5729;43.570;27.826;2023-07-13T04:08:24;12.35;;;9.65;;
11348;SDS011;5729;43.570;27.826;2023-07-13T04:10:54;14.98;;;9.70;;
11348;SDS011;5729;43.570;27.826;2023-07-13T04:13:19;14.15;;;9.18;;
11348;SDS011;5729;43.570;27.826;2023-07-13T04:15:45;15.05;;;9.55;;
11348;SDS011;5729;43.570;27.826;2023-07-13T04:18:10;15.30;;;9.95;;
11348;SDS011;5729;43.570;27.826;2023-07-13T04:20:36;14.45;;;9.20;;
11348;SDS011;5729;43.570;27.826;2023-07-13T04:23:01;9.93;;;8.93;;
11348;SDS011;5729;43.570;27.826;2023-07-13T04:25:27;13.73;;;9.90;;
11348;SDS011;5729;43.570;27.826;2023-07-13T04:27:53;12.93;;;8.90;;
11348;SDS011;5729;43.570;27.826;2023-07-13T04:30:19;15.30;;;9.18;;
11348;SDS011;5729;43.570;27.826;2023-07-13T04:32:44;11.98;;;10.07;;
11348;SDS011;5729;43.570;27.826;2023-07-13T04:35:10;13.90;;;9.88;;
11348;SDS011;5729;43.570;27.826;2023-07-13T04:37:36;15.52;;;10.35;;
11348;SDS011;5729;43.570;27.826;2023-07-13T04:40:02;13.77;;;10.05;;
11348;SDS011;5729;43.570;27.826;2023-07-13T04:42:28;16.48;;;10.25;;
11348;SDS011;5729;43.570;27.826;2023-07-13T04:44:54;12.93;;;10.55;;
11348;SDS011;5729;43.570;27.826;2023-07-13T04:47:20;15.45;;;9.75;;
11348;SDS011;5729;43.570;27.826;2023-07-13T04:49:46;12.52;;;9.60;;
11348;SDS011;5729;43.570;27.826;2023-07-13T04:52:11;14.32;;;10.40;;
11348;SDS011;5729;43.570;27.826;2023-07-13T04:54:37;16.60;;;10.38;;
11348;SDS011;5729;43.570;27.826;2023-07-13T04:57:03;11.75;;;9.35;;
11348;SDS011;5729;43.570;27.826;2023-07-13T04:59:31;15.07;;;9.80;;
11348;SDS011;5729;43.570;27.826;2023-07-13T05:01:57;18.85;;;10.10;;
11348;SDS011;5729;43.570;27.826;2023-07-13T05:04:23;19.60;;;9.88;;
11348;SDS011;5729;43.570;27.826;2023-07-13T05:06:48;15.40;;;10.35;;
11348;SDS011;5729;43.570;27.826;2023-07-13T05:09:14;14.50;;;10.27;;
11348;SDS011;5729;43.570;27.826;2023-07-13T05:11:39;19.17;;;10.20;;
11348;SDS011;5729;43.570;27.826;2023-07-13T05:14:04;15.45;;;10.40;;
11348;SDS011;5729;43.570;27.826;2023-07-13T05:16:30;13.13;;;10.43;;
11348;SDS011;5729;43.570;27.826;2023-07-13T05:18:57;13.35;;;10.05;;
11348;SDS011;5729;43.570;27.826;2023-07-13T05:21:22;16.42;;;10.30;;
11348;SDS011;5729;43.570;27.826;2023-07-13T05:23:47;14.93;;;9.93;;
11348;SDS011;5729;43.570;27.826;2023-07-13T05:26:13;12.85;;;10.18;;
11348;SDS011;5729;43.570;27.826;2023-07-13T05:28:39;19.05;;;10.95;;
11348;SDS011;5729;43.570;27.826;2023-07-13T05:31:05;14.07;;;10.60;;
11348;SDS011;5729;43.570;27.826;2023-07-13T05:33:33;15.05;;;10.25;;
11348;SDS011;5729;43.570;27.826;2023-07-13T05:35:58;15.13;;;10.57;;
11348;SDS011;5729;43.570;27.826;2023-07-13T05:38:25;12.02;;;10.27;;
11348;SDS011;5729;43.570;27.826;2023-07-13T05:40:54;17.80;;;10.48;;
11348;SDS011;5729;43.570;27.826;2023-07-13T05:43:21;16.73;;;11.70;;
11348;SDS011;5729;43.570;27.826;2023-07-13T05:45:46;12.57;;;10.65;;
11348;SDS011;5729;43.570;27.826;2023-07-13T05:48:12;12.90;;;11.20;;
11348;SDS011;5729;43.570;27.826;2023-07-13T05:50:37;15.23;;;10.55;;
11348;SDS011;5729;43.570;27.826;2023-07-13T05:53:03;16.60;;;10.90;;
11348;SDS011;5729;43.570;27.826;2023-07-13T05:55:28;13.52;;;11.00;;
11348;SDS011;5729;43.570;27.826;2023-07-13T05:57:54;13.60;;;10.88;;
11348;SDS011;5729;43.570;27.826;2023-07-13T06:00:19;14.07;;;10.48;;
11348;SDS011;5729;43.570;27.826;2023-07-13T06:02:45;13.35;;;10.10;;
11348;SDS011;5729;43.570;27.826;2023-07-13T06:05:11;14.55;;;10.68;;
11348;SDS011;5729;43.570;27.826;2023-07-13T06:07:37;21.73;;;12.02;;
11348;SDS011;5729;43.570;27.826;2023-07-13T06:10:03;18.45;;;9.48;;
11348;SDS011;5729;43.570;27.826;2023-07-13T06:12:28;12.88;;;9.27;;
11348;SDS011;5729;43.570;27.826;2023-07-13T06:14:54;18.55;;;12.52;;
11348;SDS011;5729;43.570;27.826;2023-07-13T06:17:19;14.98;;;10.00;;
11348;SDS011;5729;43.570;27.826;2023-07-13T06:19:44;15.40;;;11.63;;
11348;SDS011;5729;43.570;27.826;2023-07-13T06:22:10;13.95;;;10.07;;
11348;SDS011;5729;43.570;27.826;2023-07-13T06:24:35;21.48;;;10.25;;
11348;SDS011;5729;43.570;27.826;2023-07-13T06:27:01;22.90;;;10.30;;
11348;SDS011;5729;43.570;27.826;2023-07-13T06:29:26;38.33;;;11.25;;
11348;SDS011;5729;43.570;27.826;2023-07-13T06:31:52;24.35;;;10.10;;
11348;SDS011;5729;43.570;27.826;2023-07-13T06:34:17;28.55;;;10.68;;
11348;SDS011;5729;43.570;27.826;2023-07-13T06:36:43;22.63;;;9.93;;
11348;SDS011;5729;43.570;27.826;2023-07-13T06:39:09;11.38;;;9.52;;
11348;SDS011;5729;43.570;27.826;2023-07-13T06:41:34;16.73;;;9.45;;
11348;SDS011;5729;43.570;27.826;2023-07-13T06:44:00;12.50;;;9.23;;
11348;SDS011;5729;43.570;27.826;2023-07-13T06:46:25;14.18;;;9.73;;
11348;SDS011;5729;43.570;27.826;2023-07-13T06:48:53;14.80;;;9.18;;
11348;SDS011;5729;43.570;27.826;2023-07-13T06:51:19;104.85;;;15.02;;
11348;SDS011;5729;43.570;27.826;2023-07-13T06:53:44;48.20;;;11.32;;
11348;SDS011;5729;43.570;27.826;2023-07-13T06:56:10;18.90;;;10.25;;
11348;SDS011;5729;43.570;27.826;2023-07-13T06:58:36;12.85;;;10.07;;
11348;SDS011;5729;43.570;27.826;2023-07-13T07:01:02;28.45;;;10.45;;
11348;SDS011;5729;43.570;27.826;2023-07-13T07:03:28;13.25;;;9.70;;
11348;SDS011;5729;43.570;27.826;2023-07-13T07:05:53;12.70;;;10.13;;
11348;SDS011;5729;43.570;27.826;2023-07-13T07:08:19;17.15;;;9.88;;
11348;SDS011;5729;43.570;27.826;2023-07-13T07:10:45;21.02;;;10.77;;
11348;SDS011;5729;43.570;27.826;2023-07-13T07:13:11;17.45;;;10.48;;
11348;SDS011;5729;43.570;27.826;2023-07-13T07:15:37;18.77;;;9.43;;
11348;SDS011;5729;43.570;27.826;2023-07-13T07:18:02;11.23;;;8.80;;
11348;SDS011;5729;43.570;27.826;2023-07-13T07:20:28;10.68;;;8.43;;
11348;SDS011;5729;43.570;27.826;2023-07-13T07:22:55;11.45;;;9.30;;
11348;SDS011;5729;43.570;27.826;2023-07-13T07:25:21;13.55;;;9.25;;
11348;SDS011;5729;43.570;27.826;2023-07-13T07:27:46;13.55;;;8.70;;
11348;SDS011;5729;43.570;27.826;2023-07-13T07:30:12;14.15;;;8.48;;
11348;SDS011;5729;43.570;27.826;2023-07-13T07:32:37;14.43;;;9.13;;
11348;SDS011;5729;43.570;27.826;2023-07-13T07:35:03;12.10;;;9.13;;
11348;SDS011;5729;43.570;27.826;2023-07-13T07:37:29;19.35;;;8.80;;
11348;SDS011;5729;43.570;27.826;2023-07-13T07:39:54;29.08;;;9.30;;
11348;SDS011;5729;43.570;27.826;2023-07-13T07:42:19;19.73;;;9.63;;
11348;SDS011;5729;43.570;27.826;2023-07-13T07:44:45;19.10;;;9.13;;
11348;SDS011;5729;43.570;27.826;2023-07-13T07:47:10;14.13;;;8.68;;
11348;SDS011;5729;43.570;27.826;2023-07-13T07:49:36;12.88;;;9.32;;
11348;SDS011;5729;43.570;27.826;2023-07-13T07:52:02;12.95;;;9.27;;
11348;SDS011;5729;43.570;27.826;2023-07-13T07:54:27;13.38;;;8.98;;
11348;SDS011;5729;43.570;27.826;2023-07-13T07:56:53;13.73;;;8.65;;
11348;SDS011;5729;43.570;27.826;2023-07-13T07:59:18;13.77;;;9.30;;
11348;SDS011;5729;43.570;27.826;2023-07-13T08:01:44;16.67;;;9.27;;
11348;SDS011;5729;43.570;27.826;2023-07-13T08:04:11;11.77;;;9.18;;
11348;SDS011;5729;43.570;27.826;2023-07-13T08:06:37;13.18;;;8.82;;
11348;SDS011;5729;43.570;27.826;2023-07-13T08:09:02;21.20;;;10.50;;
11348;SDS011;5729;43.570;27.826;2023-07-13T08:11:29;15.25;;;9.65;;
11348;SDS011;5729;43.570;27.826;2023-07-13T08:13:55;11.02;;;8.50;;
11348;SDS011;5729;43.570;27.826;2023-07-13T08:16:20;19.13;;;8.82;;
11348;SDS011;5729;43.570;27.826;2023-07-13T08:18:46;11.88;;;9.52;;
11348;SDS011;5729;43.570;27.826;2023-07-13T08:21:12;20.77;;;9.35;;
11348;SDS011;5729;43.570;27.826;2023-07-13T08:23:37;10.75;;;8.80;;
11348;SDS011;5729;43.570;27.826;2023-07-13T08:26:03;8.82;;;7.45;;
11348;SDS011;5729;43.570;27.826;2023-07-13T08:28:29;13.82;;;8.70;;
11348;SDS011;5729;43.570;27.826;2023-07-13T08:31:00;13.25;;;8.88;;
11348;SDS011;5729;43.570;27.826;2023-07-13T08:33:26;17.33;;;8.82;;
11348;SDS011;5729;43.570;27.826;2023-07-13T08:35:51;9.98;;;7.30;;
11348;SDS011;5729;43.570;27.826;2023-07-13T08:38:17;9.90;;;7.50;;
11348;SDS011;5729;43.570;27.826;2023-07-13T08:40:43;10.05;;;7.40;;
11348;SDS011;5729;43.570;27.826;2023-07-13T08:43:16;14.13;;;7.03;;
11348;SDS011;5729;43.570;27.826;2023-07-13T08:45:45;8.23;;;7.20;;
11348;SDS011;5729;43.570;27.826;2023-07-13T08:48:24;16.98;;;7.65;;
11348;SDS011;5729;43.570;27.826;2023-07-13T08:54:12;12.80;;;7.47;;
11348;SDS011;5729;43.570;27.826;2023-07-13T08:56:46;10.55;;;7.13;;
11348;SDS011;5729;43.570;27.826;2023-07-13T08:59:15;12.43;;;7.20;;
11348;SDS011;5729;43.570;27.826;2023-07-13T09:04:53;12.82;;;7.10;;
11348;SDS011;5729;43.570;27.826;2023-07-13T09:11:10;10.38;;;6.65;;
11348;SDS011;5729;43.570;27.826;2023-07-13T09:13:28;9.23;;;7.07;;
11348;SDS011;5729;43.570;27.826;2023-07-13T09:16:05;12.20;;;6.88;;
11348;SDS011;5729;43.570;27.826;2023-07-13T09:27:01;20.02;;;6.90;;
11348;SDS011;5729;43.570;27.826;2023-07-13T09:29:42;11.88;;;7.75;;
11348;SDS011;5729;43.570;27.826;2023-07-13T09:32:14;11.25;;;6.45;;
11348;SDS011;5729;43.570;27.826;2023-07-13T09:34:50;32.40;;;7.55;;
11348;SDS011;5729;43.570;27.826;2023-07-13T09:37:22;10.50;;;7.38;;
11348;SDS011;5729;43.570;27.826;2023-07-13T09:39:55;11.10;;;6.63;;
11348;SDS011;5729;43.570;27.826;2023-07-13T09:42:21;7.93;;;6.43;;
11348;SDS011;5729;43.570;27.826;2023-07-13T09:47:19;16.80;;;6.90;;
11348;SDS011;5729;43.570;27.826;2023-07-13T09:49:48;11.55;;;6.22;;
11348;SDS011;5729;43.570;27.826;2023-07-13T09:52:20;13.45;;;6.70;;
11348;SDS011;5729;43.570;27.826;2023-07-13T09:54:46;14.90;;;7.53;;
11348;SDS011;5729;43.570;27.826;2023-07-13T09:57:23;11.50;;;6.90;;
11348;SDS011;5729;43.570;27.826;2023-07-13T09:59:50;10.88;;;6.35;;
11348;SDS011;5729;43.570;27.826;2023-07-13T10:02:35;13.43;;;7.00;;
11348;SDS011;5729;43.570;27.826;2023-07-13T10:07:32;11.60;;;6.75;;
11348;SDS011;5729;43.570;27.826;2023-07-13T10:10:13;12.88;;;6.47;;
11348;SDS011;5729;43.570;27.826;2023-07-13T10:12:40;15.73;;;6.57;;
11348;SDS011;5729;43.570;27.826;2023-07-13T10:15:07;13.68;;;6.45;;
11348;SDS011;5729;43.570;27.826;2023-07-13T10:17:39;10.38;;;6.85;;
11348;SDS011;5729;43.570;27.826;2023-07-13T10:20:06;13.63;;;6.30;;
11348;SDS011;5729;43.570;27.826;2023-07-13T10:22:54;15.30;;;7.63;;
11348;SDS011;5729;43.570;27.826;2023-07-13T10:25:26;13.05;;;6.95;;
11348;SDS011;5729;43.570;27.826;2023-07-13T10:28:02;13.98;;;6.60;;
11348;SDS011;5729;43.570;27.826;2023-07-13T10:30:39;10.18;;;6.53;;
11348;SDS011;5729;43.570;27.826;2023-07-13T10:33:12;10.55;;;6.43;;
11348;SDS011;5729;43.570;27.826;2023-07-13T10:35:39;11.18;;;6.32;;
11348;SDS011;5729;43.570;27.826;2023-07-13T10:38:10;8.57;;;6.47;;
11348;SDS011;5729;43.570;27.826;2023-07-13T10:40:39;13.57;;;6.32;;
11348;SDS011;5729;43.570;27.826;2023-07-13T10:45:49;12.18;;;6.43;;
11348;SDS011;5729;43.570;27.826;2023-07-13T10:48:16;15.88;;;5.85;;
11348;SDS011;5729;43.570;27.826;2023-07-13T10:50:44;16.42;;;6.10;;
11348;SDS011;5729;43.570;27.826;2023-07-13T10:53:30;8.50;;;6.15;;
11348;SDS011;5729;43.570;27.826;2023-07-13T10:55:59;9.65;;;5.68;;
11348;SDS011;5729;43.570;27.826;2023-07-13T10:58:34;7.90;;;5.40;;
11348;SDS011;5729;43.570;27.826;2023-07-13T11:01:13;10.88;;;4.97;;
11348;SDS011;5729;43.570;27.826;2023-07-13T11:08:35;10.32;;;5.15;;
11348;SDS011;5729;43.570;27.826;2023-07-13T11:11:31;12.63;;;5.90;;
11348;SDS011;5729;43.570;27.826;2023-07-13T11:23:45;8.43;;;4.95;;
11348;SDS011;5729;43.570;27.826;2023-07-13T11:29:07;13.07;;;5.57;;
11348;SDS011;5729;43.570;27.826;2023-07-13T11:31:43;23.35;;;6.28;;
11348;SDS011;5729;43.570;27.826;2023-07-13T11:34:16;10.32;;;5.72;;
11348;SDS011;5729;43.570;27.826;2023-07-13T11:36:48;12.90;;;6.03;;
11348;SDS011;5729;43.570;27.826;2023-07-13T11:41:44;10.27;;;5.72;;
11348;SDS011;5729;43.570;27.826;2023-07-13T11:44:16;9.23;;;5.63;;
11348;SDS011;5729;43.570;27.826;2023-07-13T11:46:50;9.40;;;5.35;;
11348;SDS011;5729;43.570;27.826;2023-07-13T11:49:19;8.93;;;5.40;;
11348;SDS011;5729;43.570;27.826;2023-07-13T11:51:46;10.82;;;5.10;;
11348;SDS011;5729;43.570;27.826;2023-07-13T11:54:42;13.95;;;6.13;;
11348;SDS011;5729;43.570;27.826;2023-07-13T11:59:56;9.07;;;5.35;;
11348;SDS011;5729;43.570;27.826;2023-07-13T12:02:34;11.60;;;5.68;;
11348;SDS011;5729;43.570;27.826;2023-07-13T12:05:03;8.45;;;5.05;;
11348;SDS011;5729;43.570;27.826;2023-07-13T12:07:31;17.88;;;5.75;;
11348;SDS011;5729;43.570;27.826;2023-07-13T12:10:01;11.20;;;5.22;;
11348;SDS011;5729;43.570;27.826;2023-07-13T12:12:50;9.05;;;5.43;;
11348;SDS011;5729;43.570;27.826;2023-07-13T12:15:16;8.35;;;5.57;;
11348;SDS011;5729;43.570;27.826;2023-07-13T12:17:42;9.90;;;5.65;;
11348;SDS011;5729;43.570;27.826;2023-07-13T12:20:41;13.15;;;5.50;;
11348;SDS011;5729;43.570;27.826;2023-07-13T12:23:04;10.80;;;5.40;;
11348;SDS011;5729;43.570;27.826;2023-07-13T12:25:30;12.55;;;6.20;;
11348;SDS011;5729;43.570;27.826;2023-07-13T12:27:56;9.57;;;5.55;;
11348;SDS011;5729;43.570;27.826;2023-07-13T12:33:00;13.32;;;5.70;;
11348;SDS011;5729;43.570;27.826;2023-07-13T12:35:38;8.50;;;5.82;;
11348;SDS011;5729;43.570;27.826;2023-07-13T12:38:10;11.82;;;5.85;;
11348;SDS011;5729;43.570;27.826;2023-07-13T12:40:36;11.75;;;5.60;;
11348;SDS011;5729;43.570;27.826;2023-07-13T12:43:02;15.88;;;6.03;;
11348;SDS011;5729;43.570;27.826;2023-07-13T12:45:32;10.70;;;5.30;;
11348;SDS011;5729;43.570;27.826;2023-07-13T12:48:37;10.57;;;5.78;;
11348;SDS011;5729;43.570;27.826;2023-07-13T12:50:50;14.00;;;6.30;;
11348;SDS011;5729;43.570;27.826;2023-07-13T12:53:17;10.60;;;5.80;;
11348;SDS011;5729;43.570;27.826;2023-07-13T12:55:49;11.07;;;5.75;;
11348;SDS011;5729;43.570;27.826;2023-07-13T12:58:21;16.88;;;5.95;;
11348;SDS011;5729;43.570;27.826;2023-07-13T13:01:01;11.00;;;5.95;;
11348;SDS011;5729;43.570;27.826;2023-07-13T13:03:31;10.50;;;6.22;;
11348;SDS011;5729;43.570;27.826;2023-07-13T13:08:33;17.45;;;5.85;;
11348;SDS011;5729;43.570;27.826;2023-07-13T13:11:03;14.25;;;5.80;;
11348;SDS011;5729;43.570;27.826;2023-07-13T13:13:29;12.20;;;6.10;;
11348;SDS011;5729;43.570;27.826;2023-07-13T13:15:55;11.65;;;5.35;;
11348;SDS011;5729;43.570;27.826;2023-07-13T13:18:22;8.90;;;5.57;;
11348;SDS011;5729;43.570;27.826;2023-07-13T13:20:50;7.30;;;5.40;;
11348;SDS011;5729;43.570;27.826;2023-07-13T13:23:17;9.88;;;6.03;;
11348;SDS011;5729;43.570;27.826;2023-07-13T13:25:45;10.40;;;5.45;;
11348;SDS011;5729;43.570;27.826;2023-07-13T13:28:16;9.43;;;5.68;;
11348;SDS011;5729;43.570;27.826;2023-07-13T13:30:44;9.70;;;6.20;;
11348;SDS011;5729;43.570;27.826;2023-07-13T13:33:11;6.88;;;5.68;;
11348;SDS011;5729;43.570;27.826;2023-07-13T13:35:38;10.98;;;5.40;;
11348;SDS011;5729;43.570;27.826;2023-07-13T13:38:09;7.70;;;5.53;;
11348;SDS011;5729;43.570;27.826;2023-07-13T13:40:37;17.92;;;6.25;;
11348;SDS011;5729;43.570;27.826;2023-07-13T13:43:04;13.57;;;5.85;;
11348;SDS011;5729;43.570;27.826;2023-07-13T13:45:39;15.27;;;5.88;;
11348;SDS011;5729;43.570;27.826;2023-07-13T13:48:05;19.05;;;5.65;;
11348;SDS011;5729;43.570;27.826;2023-07-13T13:50:30;8.57;;;5.90;;
11348;SDS011;5729;43.570;27.826;2023-07-13T13:52:56;10.63;;;5.70;;
11348;SDS011;5729;43.570;27.826;2023-07-13T13:55:21;8.63;;;5.30;;
11348;SDS011;5729;43.570;27.826;2023-07-13T13:57:49;13.88;;;5.63;;
11348;SDS011;5729;43.570;27.826;2023-07-13T14:00:15;10.45;;;5.93;;
11348;SDS011;5729;43.570;27.826;2023-07-13T14:02:43;23.02;;;6.35;;
11348;SDS011;5729;43.570;27.826;2023-07-13T14:05:17;11.68;;;6.57;;
11348;SDS011;5729;43.570;27.826;2023-07-13T14:07:46;12.05;;;5.75;;
11348;SDS011;5729;43.570;27.826;2023-07-13T14:10:13;10.55;;;5.95;;
11348;SDS011;5729;43.570;27.826;2023-07-13T14:12:41;15.45;;;5.97;;
11348;SDS011;5729;43.570;27.826;2023-07-13T14:15:23;11.23;;;5.78;;
11348;SDS011;5729;43.570;27.826;2023-07-13T14:17:51;21.40;;;7.45;;
11348;SDS011;5729;43.570;27.826;2023-07-13T14:20:18;17.45;;;7.50;;
11348;SDS011;5729;43.570;27.826;2023-07-13T14:22:45;11.23;;;7.65;;
11348;SDS011;5729;43.570;27.826;2023-07-13T14:25:15;13.80;;;7.70;;
11348;SDS011;5729;43.570;27.826;2023-07-13T14:27:42;11.85;;;8.48;;
11348;SDS011;5729;43.570;27.826;2023-07-13T14:30:12;9.07;;;7.03;;
11348;SDS011;5729;43.570;27.826;2023-07-13T14:32:42;10.07;;;7.30;;
11348;SDS011;5729;43.570;27.826;2023-07-13T14:35:12;16.92;;;7.25;;
11348;SDS011;5729;43.570;27.826;2023-07-13T14:37:39;14.63;;;7.55;;
11348;SDS011;5729;43.570;27.826;2023-07-13T14:40:12;13.68;;;7.43;;
11348;SDS011;5729;43.570;27.826;2023-07-13T14:42:43;14.07;;;7.95;;
11348;SDS011;5729;43.570;27.826;2023-07-13T14:45:15;13.20;;;7.60;;
11348;SDS011;5729;43.570;27.826;2023-07-13T14:47:42;16.23;;;7.88;;
11348;SDS011;5729;43.570;27.826;2023-07-13T14:50:51;12.20;;;7.70;;
11348;SDS011;5729;43.570;27.826;2023-07-13T14:52:57;10.35;;;6.90;;
11348;SDS011;5729;43.570;27.826;2023-07-13T14:55:23;16.90;;;7.63;;
11348;SDS011;5729;43.570;27.826;2023-07-13T14:57:51;15.32;;;6.90;;
11348;SDS011;5729;43.570;27.826;2023-07-13T15:00:20;10.32;;;6.93;;
11348;SDS011;5729;43.570;27.826;2023-07-13T15:02:48;11.05;;;7.68;;
11348;SDS011;5729;43.570;27.826;2023-07-13T15:05:20;11.05;;;7.65;;
11348;SDS011;5729;43.570;27.826;2023-07-13T15:07:51;10.68;;;7.22;;
11348;SDS011;5729;43.570;27.826;2023-07-13T15:10:24;15.75;;;7.88;;
11348;SDS011;5729;43.570;27.826;2023-07-13T15:12:52;14.77;;;7.30;;
11348;SDS011;5729;43.570;27.826;2023-07-13T15:15:18;11.85;;;7.25;;
11348;SDS011;5729;43.570;27.826;2023-07-13T15:17:44;14.80;;;6.78;;
11348;SDS011;5729;43.570;27.826;2023-07-13T15:22:49;10.55;;;7.25;;
11348;SDS011;5729;43.570;27.826;2023-07-13T15:25:18;12.75;;;6.65;;
11348;SDS011;5729;43.570;27.826;2023-07-13T15:27:49;9.18;;;6.78;;
11348;SDS011;5729;43.570;27.826;2023-07-13T15:30:15;12.50;;;7.03;;
11348;SDS011;5729;43.570;27.826;2023-07-13T15:32:44;12.40;;;7.30;;
11348;SDS011;5729;43.570;27.826;2023-07-13T15:35:14;9.57;;;7.03;;
11348;SDS011;5729;43.570;27.826;2023-07-13T15:37:47;15.35;;;7.88;;
11348;SDS011;5729;43.570;27.826;2023-07-13T15:40:13;13.57;;;7.57;;